sensor_id;sensor_type;location;lat;lon;timestamp;temperature;humidity
28837;DHT22;50669;50.982;11.022;2023-03-01T00:02:11;17.30;86.50
28837;DHT22;50669;50.982;11.022;2023-03-01T00:04:39;17.20;86.30
28837;DHT22;50669;50.982;11.022;2023-03-01T00:07:06;17.20;86.40
28837;DHT22;50669;50.982;11.022;2023-03-01T00:09:31;17.20;86.30
28837;DHT22;50669;50.982;11.022;2023-03-01T00:11:57;17.20;86.30
28837;DHT22;50669;50.982;11.022;2023-03-01T00:14:25;17.20;87.00
28837;DHT22;50669;50.982;11.022;2023-03-01T00:16:51;17.20;86.20
28837;DHT22;50669;50.982;11.022;2023-03-01T00:19:19;17.20;86.30
28837;DHT22;50669;50.982;11.022;2023-03-01T00:21:49;17.20;86.30
28837;DHT22;50669;50.982;11.022;2023-03-01T00:24:15;17.20;86.30
28837;DHT22;50669;50.982;11.022;2023-03-01T00:26:41;17.20;86.20
28837;DHT22;50669;50.982;11.022;2023-03-01T00:29:06;17.20;86.30
28837;DHT22;50669;50.982;11.022;2023-03-01T00:31:33;17.20;86.20
28837;DHT22;50669;50.982;11.022;2023-03-01T00:34:01;17.20;86.20
28837;DHT22;50669;50.982;11.022;2023-03-01T00:36:36;17.20;86.20
28837;DHT22;50669;50.982;11.022;2023-03-01T00:39:03;17.20;86.20
28837;DHT22;50669;50.982;11.022;2023-03-01T00:41:29;17.20;86.20
28837;DHT22;50669;50.982;11.022;2023-03-01T00:43:55;17.10;86.10
28837;DHT22;50669;50.982;11.022;2023-03-01T00:46:26;17.10;86.10
28837;DHT22;50669;50.982;11.022;2023-03-01T00:48:53;17.10;86.00
28837;DHT22;50669;50.982;11.022;2023-03-01T00:51:27;17.10;86.00
28837;DHT22;50669;50.982;11.022;2023-03-01T00:53:56;17.10;86.10
28837;DHT22;50669;50.982;11.022;2023-03-01T00:56:22;17.10;86.00
28837;DHT22;50669;50.982;11.022;2023-03-01T00:58:48;17.10;86.00
28837;DHT22;50669;50.982;11.022;2023-03-01T01:01:22;17.10;86.00
28837;DHT22;50669;50.982;11.022;2023-03-01T01:03:51;17.10;86.00
28837;DHT22;50669;50.982;11.022;2023-03-01T01:08:47;17.10;85.90
28837;DHT22;50669;50.982;11.022;2023-03-01T01:11:14;17.10;85.90
28837;DHT22;50669;50.982;11.022;2023-03-01T01:13:40;17.10;85.90
28837;DHT22;50669;50.982;11.022;2023-03-01T01:16:07;17.10;85.90
28837;DHT22;50669;50.982;11.022;2023-03-01T01:18:35;17.10;85.90
28837;DHT22;50669;50.982;11.022;2023-03-01T01:21:08;17.00;85.80
28837;DHT22;50669;50.982;11.022;2023-03-01T01:23:34;17.10;85.80
28837;DHT22;50669;50.982;11.022;2023-03-01T01:26:04;17.10;85.90
28837;DHT22;50669;50.982;11.022;2023-03-01T01:28:30;17.10;86.50
28837;DHT22;50669;50.982;11.022;2023-03-01T01:30:56;17.00;85.80
28837;DHT22;50669;50.982;11.022;2023-03-01T01:33:22;17.10;85.80
28837;DHT22;50669;50.982;11.022;2023-03-01T01:35:47;17.10;85.80
28837;DHT22;50669;50.982;11.022;2023-03-01T01:38:13;17.10;85.80
28837;DHT22;50669;50.982;11.022;2023-03-01T01:40:48;17.10;85.80
28837;DHT22;50669;50.982;11.022;2023-03-01T01:43:25;17.00;85.70
28837;DHT22;50669;50.982;11.022;2023-03-01T01:45:55;17.00;85.60
28837;DHT22;50669;50.982;11.022;2023-03-01T01:48:28;17.00;85.70
28837;DHT22;50669;50.982;11.022;2023-03-01T01:51:12;17.00;85.70
28837;DHT22;50669;50.982;11.022;2023-03-01T01:53:39;17.00;85.60
28837;DHT22;50669;50.982;11.022;2023-03-01T01:56:09;17.00;85.50
28837;DHT22;50669;50.982;11.022;2023-03-01T01:58:37;17.00;85.60
28837;DHT22;50669;50.982;11.022;2023-03-01T02:01:04;17.00;85.60
28837;DHT22;50669;50.982;11.022;2023-03-01T02:03:31;17.00;85.50
28837;DHT22;50669;50.982;11.022;2023-03-01T02:06:10;17.00;85.60
28837;DHT22;50669;50.982;11.022;2023-03-01T02:08:38;17.00;85.50
28837;DHT22;50669;50.982;11.022;2023-03-01T02:11:08;16.90;85.30
28837;DHT22;50669;50.982;11.022;2023-03-01T02:13:34;16.90;85.40
28837;DHT22;50669;50.982;11.022;2023-03-01T02:16:10;17.00;85.40
28837;DHT22;50669;50.982;11.022;2023-03-01T02:18:40;16.90;85.40
28837;DHT22;50669;50.982;11.022;2023-03-01T02:23:41;16.90;85.40
28837;DHT22;50669;50.982;11.022;2023-03-01T02:28:47;16.90;85.30
28837;DHT22;50669;50.982;11.022;2023-03-01T02:31:17;16.90;85.30
28837;DHT22;50669;50.982;11.022;2023-03-01T02:34:05;16.90;85.30
28837;DHT22;50669;50.982;11.022;2023-03-01T02:36:40;16.90;85.20
28837;DHT22;50669;50.982;11.022;2023-03-01T02:39:13;16.90;85.20
28837;DHT22;50669;50.982;11.022;2023-03-01T02:41:46;16.90;85.30
28837;DHT22;50669;50.982;11.022;2023-03-01T02:44:13;16.90;85.30
28837;DHT22;50669;50.982;11.022;2023-03-01T02:46:47;16.90;85.20
28837;DHT22;50669;50.982;11.022;2023-03-01T02:49:26;16.90;85.20
28837;DHT22;50669;50.982;11.022;2023-03-01T02:56:47;16.80;85.10
28837;DHT22;50669;50.982;11.022;2023-03-01T02:59:18;16.80;85.10
28837;DHT22;50669;50.982;11.022;2023-03-01T03:01:45;16.80;85.10
28837;DHT22;50669;50.982;11.022;2023-03-01T03:04:15;16.80;85.10
28837;DHT22;50669;50.982;11.022;2023-03-01T03:06:46;16.80;85.10
28837;DHT22;50669;50.982;11.022;2023-03-01T03:09:17;16.80;85.10
28837;DHT22;50669;50.982;11.022;2023-03-01T03:11:46;16.80;85.10
28837;DHT22;50669;50.982;11.022;2023-03-01T03:14:14;16.80;85.10
28837;DHT22;50669;50.982;11.022;2023-03-01T03:16:45;16.80;85.00
28837;DHT22;50669;50.982;11.022;2023-03-01T03:19:14;16.80;85.00
28837;DHT22;50669;50.982;11.022;2023-03-01T03:21:39;16.80;85.00
28837;DHT22;50669;50.982;11.022;2023-03-01T03:24:05;16.80;85.00
28837;DHT22;50669;50.982;11.022;2023-03-01T03:26:33;16.80;85.00
28837;DHT22;50669;50.982;11.022;2023-03-01T03:29:01;16.80;85.00
28837;DHT22;50669;50.982;11.022;2023-03-01T03:31:27;16.80;85.00
28837;DHT22;50669;50.982;11.022;2023-03-01T03:33:54;16.80;85.00
28837;DHT22;50669;50.982;11.022;2023-03-01T03:36:22;16.80;84.90
28837;DHT22;50669;50.982;11.022;2023-03-01T03:38:48;16.80;84.90
28837;DHT22;50669;50.982;11.022;2023-03-01T03:41:17;16.80;84.90
28837;DHT22;50669;50.982;11.022;2023-03-01T03:43:45;16.80;84.90
28837;DHT22;50669;50.982;11.022;2023-03-01T03:46:11;16.80;84.90
28837;DHT22;50669;50.982;11.022;2023-03-01T03:48:46;16.70;84.80
28837;DHT22;50669;50.982;11.022;2023-03-01T03:51:14;16.70;84.80
28837;DHT22;50669;50.982;11.022;2023-03-01T03:53:41;16.70;84.80
28837;DHT22;50669;50.982;11.022;2023-03-01T03:56:07;16.70;84.80
28837;DHT22;50669;50.982;11.022;2023-03-01T03:58:33;16.70;84.70
28837;DHT22;50669;50.982;11.022;2023-03-01T04:00:59;16.70;84.80
28837;DHT22;50669;50.982;11.022;2023-03-01T04:03:27;16.70;84.80
28837;DHT22;50669;50.982;11.022;2023-03-01T04:05:53;16.70;84.70
28837;DHT22;50669;50.982;11.022;2023-03-01T04:08:25;16.70;84.70
28837;DHT22;50669;50.982;11.022;2023-03-01T04:11:00;16.70;84.60
28837;DHT22;50669;50.982;11.022;2023-03-01T04:13:46;16.70;84.70
28837;DHT22;50669;50.982;11.022;2023-03-01T04:16:12;16.70;84.70
28837;DHT22;50669;50.982;11.022;2023-03-01T04:18:42;16.70;84.70
28837;DHT22;50669;50.982;11.022;2023-03-01T04:21:08;16.60;84.60
28837;DHT22;50669;50.982;11.022;2023-03-01T04:23:33;16.60;84.60
28837;DHT22;50669;50.982;11.022;2023-03-01T04:26:00;16.60;84.50
28837;DHT22;50669;50.982;11.022;2023-03-01T04:28:36;16.60;84.50
28837;DHT22;50669;50.982;11.022;2023-03-01T04:31:05;16.60;84.50
28837;DHT22;50669;50.982;11.022;2023-03-01T04:33:46;16.60;84.50
28837;DHT22;50669;50.982;11.022;2023-03-01T04:36:14;16.60;84.50
28837;DHT22;50669;50.982;11.022;2023-03-01T04:38:43;16.60;84.50
28837;DHT22;50669;50.982;11.022;2023-03-01T04:41:13;16.60;84.50
28837;DHT22;50669;50.982;11.022;2023-03-01T04:43:39;16.60;84.40
28837;DHT22;50669;50.982;11.022;2023-03-01T04:46:10;16.60;84.50
28837;DHT22;50669;50.982;11.022;2023-03-01T04:48:41;16.60;84.50
28837;DHT22;50669;50.982;11.022;2023-03-01T04:51:10;16.60;84.40
28837;DHT22;50669;50.982;11.022;2023-03-01T04:53:39;16.60;84.40
28837;DHT22;50669;50.982;11.022;2023-03-01T04:56:05;16.60;84.40
28837;DHT22;50669;50.982;11.022;2023-03-01T04:58:32;16.50;84.30
28837;DHT22;50669;50.982;11.022;2023-03-01T05:00:57;16.60;84.40
28837;DHT22;50669;50.982;11.022;2023-03-01T05:03:26;16.60;84.30
28837;DHT22;50669;50.982;11.022;2023-03-01T05:05:52;16.60;84.30
28837;DHT22;50669;50.982;11.022;2023-03-01T05:08:18;16.50;84.20
28837;DHT22;50669;50.982;11.022;2023-03-01T05:10:51;16.60;84.30
28837;DHT22;50669;50.982;11.022;2023-03-01T05:13:18;16.50;84.20
28837;DHT22;50669;50.982;11.022;2023-03-01T05:15:57;16.60;84.30
28837;DHT22;50669;50.982;11.022;2023-03-01T05:18:24;16.50;84.20
28837;DHT22;50669;50.982;11.022;2023-03-01T05:20:54;16.50;84.20
28837;DHT22;50669;50.982;11.022;2023-03-01T05:23:26;16.50;84.20
28837;DHT22;50669;50.982;11.022;2023-03-01T05:25:51;16.50;84.20
28837;DHT22;50669;50.982;11.022;2023-03-01T05:28:20;16.50;84.20
28837;DHT22;50669;50.982;11.022;2023-03-01T05:30:46;16.50;84.20
28837;DHT22;50669;50.982;11.022;2023-03-01T05:33:12;16.50;84.20
28837;DHT22;50669;50.982;11.022;2023-03-01T05:35:42;16.50;84.20
28837;DHT22;50669;50.982;11.022;2023-03-01T05:38:09;16.50;84.10
28837;DHT22;50669;50.982;11.022;2023-03-01T05:40:39;16.50;84.10
28837;DHT22;50669;50.982;11.022;2023-03-01T05:43:05;16.40;84.00
28837;DHT22;50669;50.982;11.022;2023-03-01T05:45:31;16.40;84.00
28837;DHT22;50669;50.982;11.022;2023-03-01T05:48:03;16.40;84.00
28837;DHT22;50669;50.982;11.022;2023-03-01T05:50:44;16.40;84.00
28837;DHT22;50669;50.982;11.022;2023-03-01T05:53:19;16.40;84.00
28837;DHT22;50669;50.982;11.022;2023-03-01T05:55:47;16.40;84.00
28837;DHT22;50669;50.982;11.022;2023-03-01T05:58:18;16.40;84.00
28837;DHT22;50669;50.982;11.022;2023-03-01T06:00:46;16.40;83.90
28837;DHT22;50669;50.982;11.022;2023-03-01T06:03:14;16.40;83.90
28837;DHT22;50669;50.982;11.022;2023-03-01T06:05:41;16.40;83.90
28837;DHT22;50669;50.982;11.022;2023-03-01T06:08:08;16.40;84.70
28837;DHT22;50669;50.982;11.022;2023-03-01T06:10:34;16.40;83.90
28837;DHT22;50669;50.982;11.022;2023-03-01T06:13:00;16.40;83.90
28837;DHT22;50669;50.982;11.022;2023-03-01T06:15:26;16.40;83.90
28837;DHT22;50669;50.982;11.022;2023-03-01T06:17:54;16.40;83.90
28837;DHT22;50669;50.982;11.022;2023-03-01T06:20:24;16.40;83.90
28837;DHT22;50669;50.982;11.022;2023-03-01T06:22:50;16.40;83.90
28837;DHT22;50669;50.982;11.022;2023-03-01T06:25:19;16.30;83.80
28837;DHT22;50669;50.982;11.022;2023-03-01T06:27:45;16.40;83.80
28837;DHT22;50669;50.982;11.022;2023-03-01T06:30:17;16.40;83.80
28837;DHT22;50669;50.982;11.022;2023-03-01T06:32:43;16.30;83.70
28837;DHT22;50669;50.982;11.022;2023-03-01T06:35:14;16.30;83.70
28837;DHT22;50669;50.982;11.022;2023-03-01T06:37:40;16.30;83.70
28837;DHT22;50669;50.982;11.022;2023-03-01T06:40:07;16.30;83.70
28837;DHT22;50669;50.982;11.022;2023-03-01T06:42:38;16.30;83.60
28837;DHT22;50669;50.982;11.022;2023-03-01T06:45:05;16.30;83.70
28837;DHT22;50669;50.982;11.022;2023-03-01T06:47:32;16.30;83.50
28837;DHT22;50669;50.982;11.022;2023-03-01T06:49:59;16.30;83.60
28837;DHT22;50669;50.982;11.022;2023-03-01T06:52:25;16.30;84.40
28837;DHT22;50669;50.982;11.022;2023-03-01T06:54:50;16.30;83.60
28837;DHT22;50669;50.982;11.022;2023-03-01T06:57:16;16.30;83.60
28837;DHT22;50669;50.982;11.022;2023-03-01T06:59:42;16.30;83.60
28837;DHT22;50669;50.982;11.022;2023-03-01T07:02:10;16.30;83.50
28837;DHT22;50669;50.982;11.022;2023-03-01T07:04:37;16.30;83.50
28837;DHT22;50669;50.982;11.022;2023-03-01T07:07:02;16.20;83.40
28837;DHT22;50669;50.982;11.022;2023-03-01T07:09:31;16.30;83.50
28837;DHT22;50669;50.982;11.022;2023-03-01T07:11:56;16.30;83.50
28837;DHT22;50669;50.982;11.022;2023-03-01T07:14:22;16.30;83.50
28837;DHT22;50669;50.982;11.022;2023-03-01T07:16:50;16.30;83.40
28837;DHT22;50669;50.982;11.022;2023-03-01T07:19:15;16.30;83.40
28837;DHT22;50669;50.982;11.022;2023-03-01T07:21:43;16.30;83.40
28837;DHT22;50669;50.982;11.022;2023-03-01T07:24:09;16.30;83.40
28837;DHT22;50669;50.982;11.022;2023-03-01T07:26:37;16.30;83.40
28837;DHT22;50669;50.982;11.022;2023-03-01T07:29:09;16.30;83.30
28837;DHT22;50669;50.982;11.022;2023-03-01T07:31:39;16.20;83.30
28837;DHT22;50669;50.982;11.022;2023-03-01T07:34:07;16.30;83.30
28837;DHT22;50669;50.982;11.022;2023-03-01T07:36:33;16.20;83.20
28837;DHT22;50669;50.982;11.022;2023-03-01T07:39:01;16.20;83.20
28837;DHT22;50669;50.982;11.022;2023-03-01T07:41:29;16.20;83.20
28837;DHT22;50669;50.982;11.022;2023-03-01T07:43:54;16.20;83.20
28837;DHT22;50669;50.982;11.022;2023-03-01T07:46:20;16.20;83.20
28837;DHT22;50669;50.982;11.022;2023-03-01T07:48:46;16.30;83.20
28837;DHT22;50669;50.982;11.022;2023-03-01T07:51:14;16.20;83.10
28837;DHT22;50669;50.982;11.022;2023-03-01T07:53:40;16.20;83.10
28837;DHT22;50669;50.982;11.022;2023-03-01T07:56:15;16.20;83.10
28837;DHT22;50669;50.982;11.022;2023-03-01T07:58:44;16.20;83.00
28837;DHT22;50669;50.982;11.022;2023-03-01T08:01:16;16.20;83.00
28837;DHT22;50669;50.982;11.022;2023-03-01T08:03:42;16.20;83.00
28837;DHT22;50669;50.982;11.022;2023-03-01T08:06:10;16.20;83.00
28837;DHT22;50669;50.982;11.022;2023-03-01T08:08:36;16.20;83.00
28837;DHT22;50669;50.982;11.022;2023-03-01T08:11:03;16.20;83.00
28837;DHT22;50669;50.982;11.022;2023-03-01T08:13:30;16.20;83.00
28837;DHT22;50669;50.982;11.022;2023-03-01T08:16:04;16.20;82.90
28837;DHT22;50669;50.982;11.022;2023-03-01T08:18:30;16.20;82.90
28837;DHT22;50669;50.982;11.022;2023-03-01T08:21:13;16.20;82.90
28837;DHT22;50669;50.982;11.022;2023-03-01T08:23:40;16.20;82.90
28837;DHT22;50669;50.982;11.022;2023-03-01T08:26:15;16.20;82.90
28837;DHT22;50669;50.982;11.022;2023-03-01T08:28:41;16.20;82.80
28837;DHT22;50669;50.982;11.022;2023-03-01T08:31:28;16.20;82.80
28837;DHT22;50669;50.982;11.022;2023-03-01T08:34:00;16.20;82.80
28837;DHT22;50669;50.982;11.022;2023-03-01T08:36:28;16.10;82.70
28837;DHT22;50669;50.982;11.022;2023-03-01T08:38:54;16.20;83.40
28837;DHT22;50669;50.982;11.022;2023-03-01T08:41:20;16.20;82.70
28837;DHT22;50669;50.982;11.022;2023-03-01T08:43:48;16.20;82.70
28837;DHT22;50669;50.982;11.022;2023-03-01T08:46:16;16.10;82.50
28837;DHT22;50669;50.982;11.022;2023-03-01T08:48:42;16.20;82.70
28837;DHT22;50669;50.982;11.022;2023-03-01T08:51:18;16.10;82.60
28837;DHT22;50669;50.982;11.022;2023-03-01T08:53:45;16.20;82.60
28837;DHT22;50669;50.982;11.022;2023-03-01T08:56:12;16.20;82.60
28837;DHT22;50669;50.982;11.022;2023-03-01T08:58:38;16.20;82.60
28837;DHT22;50669;50.982;11.022;2023-03-01T09:01:07;16.20;82.60
28837;DHT22;50669;50.982;11.022;2023-03-01T09:03:33;16.20;82.50
28837;DHT22;50669;50.982;11.022;2023-03-01T09:06:03;16.20;82.50
28837;DHT22;50669;50.982;11.022;2023-03-01T09:08:30;16.20;82.40
28837;DHT22;50669;50.982;11.022;2023-03-01T09:10:55;16.10;82.40
28837;DHT22;50669;50.982;11.022;2023-03-01T09:13:22;16.10;82.40
28837;DHT22;50669;50.982;11.022;2023-03-01T09:15:54;16.10;82.40
28837;DHT22;50669;50.982;11.022;2023-03-01T09:18:20;16.10;82.40
28837;DHT22;50669;50.982;11.022;2023-03-01T09:20:48;16.10;82.30
28837;DHT22;50669;50.982;11.022;2023-03-01T09:23:16;16.10;82.30
28837;DHT22;50669;50.982;11.022;2023-03-01T09:25:43;16.20;82.30
28837;DHT22;50669;50.982;11.022;2023-03-01T09:28:08;16.20;82.30
28837;DHT22;50669;50.982;11.022;2023-03-01T09:30:36;16.10;82.20
28837;DHT22;50669;50.982;11.022;2023-03-01T09:33:04;16.10;82.30
28837;DHT22;50669;50.982;11.022;2023-03-01T09:35:30;16.10;82.20
28837;DHT22;50669;50.982;11.022;2023-03-01T09:37:55;16.10;82.10
28837;DHT22;50669;50.982;11.022;2023-03-01T09:40:23;16.10;82.10
28837;DHT22;50669;50.982;11.022;2023-03-01T09:46:03;16.10;82.10
28837;DHT22;50669;50.982;11.022;2023-03-01T09:48:37;16.10;82.10
28837;DHT22;50669;50.982;11.022;2023-03-01T09:51:18;16.10;82.10
28837;DHT22;50669;50.982;11.022;2023-03-01T09:53:47;16.10;82.10
28837;DHT22;50669;50.982;11.022;2023-03-01T09:56:28;16.10;82.10
28837;DHT22;50669;50.982;11.022;2023-03-01T09:59:17;16.10;82.10
28837;DHT22;50669;50.982;11.022;2023-03-01T10:04:45;16.10;82.00
28837;DHT22;50669;50.982;11.022;2023-03-01T10:10:07;16.10;81.90
28837;DHT22;50669;50.982;11.022;2023-03-01T10:12:40;16.10;81.90
28837;DHT22;50669;50.982;11.022;2023-03-01T10:15:27;16.10;81.80
28837;DHT22;50669;50.982;11.022;2023-03-01T10:18:06;16.10;81.90
28837;DHT22;50669;50.982;11.022;2023-03-01T10:23:16;16.10;81.90
28837;DHT22;50669;50.982;11.022;2023-03-01T10:31:16;16.10;81.70
28837;DHT22;50669;50.982;11.022;2023-03-01T10:33:44;16.10;81.80
28837;DHT22;50669;50.982;11.022;2023-03-01T10:36:10;16.10;81.70
28837;DHT22;50669;50.982;11.022;2023-03-01T10:38:56;16.10;81.70
28837;DHT22;50669;50.982;11.022;2023-03-01T10:41:25;16.10;81.70
28837;DHT22;50669;50.982;11.022;2023-03-01T10:43:59;16.10;81.60
28837;DHT22;50669;50.982;11.022;2023-03-01T10:46:35;16.10;81.70
28837;DHT22;50669;50.982;11.022;2023-03-01T10:49:21;16.10;81.60
28837;DHT22;50669;50.982;11.022;2023-03-01T10:51:52;16.10;81.60
28837;DHT22;50669;50.982;11.022;2023-03-01T10:54:32;16.10;81.60
28837;DHT22;50669;50.982;11.022;2023-03-01T10:57:04;16.10;81.60
28837;DHT22;50669;50.982;11.022;2023-03-01T11:04:28;16.10;81.50
28837;DHT22;50669;50.982;11.022;2023-03-01T11:07:01;16.10;81.50
28837;DHT22;50669;50.982;11.022;2023-03-01T11:09:33;16.10;81.50
28837;DHT22;50669;50.982;11.022;2023-03-01T11:12:15;16.10;81.50
28837;DHT22;50669;50.982;11.022;2023-03-01T11:14:56;16.10;81.50
28837;DHT22;50669;50.982;11.022;2023-03-01T11:17:32;16.10;81.40
28837;DHT22;50669;50.982;11.022;2023-03-01T11:22:48;16.10;81.30
28837;DHT22;50669;50.982;11.022;2023-03-01T11:25:20;16.10;81.30
28837;DHT22;50669;50.982;11.022;2023-03-01T11:27:52;16.10;81.20
28837;DHT22;50669;50.982;11.022;2023-03-01T11:30:38;16.10;81.20
28837;DHT22;50669;50.982;11.022;2023-03-01T11:35:37;16.10;81.10
28837;DHT22;50669;50.982;11.022;2023-03-01T11:38:16;16.10;81.10
28837;DHT22;50669;50.982;11.022;2023-03-01T11:54:12;16.30;80.80
28837;DHT22;50669;50.982;11.022;2023-03-01T11:57:07;16.30;80.70
28837;DHT22;50669;50.982;11.022;2023-03-01T12:05:15;16.40;80.50
28837;DHT22;50669;50.982;11.022;2023-03-01T12:08:13;16.40;80.60
28837;DHT22;50669;50.982;11.022;2023-03-01T12:22:32;16.70;79.90
28837;DHT22;50669;50.982;11.022;2023-03-01T12:39:36;17.30;78.60
28837;DHT22;50669;50.982;11.022;2023-03-01T12:50:40;17.50;77.80
28837;DHT22;50669;50.982;11.022;2023-03-01T12:55:49;17.60;77.60
28837;DHT22;50669;50.982;11.022;2023-03-01T13:11:56;17.70;77.10
28837;DHT22;50669;50.982;11.022;2023-03-01T13:16:52;17.70;77.00
28837;DHT22;50669;50.982;11.022;2023-03-01T13:19:24;17.70;77.20
28837;DHT22;50669;50.982;11.022;2023-03-01T13:21:53;17.60;77.10
28837;DHT22;50669;50.982;11.022;2023-03-01T13:24:41;17.60;77.20
28837;DHT22;50669;50.982;11.022;2023-03-01T13:35:40;17.50;77.50
28837;DHT22;50669;50.982;11.022;2023-03-01T13:37:49;17.50;77.50
28837;DHT22;50669;50.982;11.022;2023-03-01T13:42:46;17.50;77.50
28837;DHT22;50669;50.982;11.022;2023-03-01T13:47:54;17.50;77.50
28837;DHT22;50669;50.982;11.022;2023-03-01T13:50:24;17.40;77.60
28837;DHT22;50669;50.982;11.022;2023-03-01T13:52:55;17.40;77.50
28837;DHT22;50669;50.982;11.022;2023-03-01T13:55:45;17.40;77.60
28837;DHT22;50669;50.982;11.022;2023-03-01T14:03:24;17.40;77.50
28837;DHT22;50669;50.982;11.022;2023-03-01T14:06:01;17.40;77.50
28837;DHT22;50669;50.982;11.022;2023-03-01T14:08:32;17.50;77.50
28837;DHT22;50669;50.982;11.022;2023-03-01T14:14:09;17.40;77.40
28837;DHT22;50669;50.982;11.022;2023-03-01T14:19:31;17.40;77.40
28837;DHT22;50669;50.982;11.022;2023-03-01T14:24:30;17.40;77.60
28837;DHT22;50669;50.982;11.022;2023-03-01T14:26:58;17.30;77.40
28837;DHT22;50669;50.982;11.022;2023-03-01T14:29:35;17.30;77.60
28837;DHT22;50669;50.982;11.022;2023-03-01T14:32:20;17.20;77.60
28837;DHT22;50669;50.982;11.022;2023-03-01T14:34:49;17.20;77.60
28837;DHT22;50669;50.982;11.022;2023-03-01T14:37:20;17.20;77.70
28837;DHT22;50669;50.982;11.022;2023-03-01T14:39:48;17.10;77.70
28837;DHT22;50669;50.982;11.022;2023-03-01T14:42:15;17.10;77.70
28837;DHT22;50669;50.982;11.022;2023-03-01T14:44:43;17.10;77.70
28837;DHT22;50669;50.982;11.022;2023-03-01T14:47:15;17.10;77.90
28837;DHT22;50669;50.982;11.022;2023-03-01T14:49:50;17.10;77.90
28837;DHT22;50669;50.982;11.022;2023-03-01T14:52:21;17.10;77.90
28837;DHT22;50669;50.982;11.022;2023-03-01T14:54:52;17.00;77.90
28837;DHT22;50669;50.982;11.022;2023-03-01T14:57:25;17.00;77.80
28837;DHT22;50669;50.982;11.022;2023-03-01T14:59:55;17.00;77.90
28837;DHT22;50669;50.982;11.022;2023-03-01T15:02:25;17.00;78.00
28837;DHT22;50669;50.982;11.022;2023-03-01T15:04:55;17.00;78.10
28837;DHT22;50669;50.982;11.022;2023-03-01T15:07:29;17.00;78.10
28837;DHT22;50669;50.982;11.022;2023-03-01T15:09:56;16.90;78.00
28837;DHT22;50669;50.982;11.022;2023-03-01T15:12:41;16.90;78.00
28837;DHT22;50669;50.982;11.022;2023-03-01T15:18:00;16.90;78.20
28837;DHT22;50669;50.982;11.022;2023-03-01T15:20:28;16.90;78.30
28837;DHT22;50669;50.982;11.022;2023-03-01T15:22:56;16.90;78.30
28837;DHT22;50669;50.982;11.022;2023-03-01T15:25:25;16.90;78.30
28837;DHT22;50669;50.982;11.022;2023-03-01T15:27:53;16.80;78.30
28837;DHT22;50669;50.982;11.022;2023-03-01T15:30:23;16.80;78.40
28837;DHT22;50669;50.982;11.022;2023-03-01T15:33:16;16.80;78.40
28837;DHT22;50669;50.982;11.022;2023-03-01T15:35:46;16.80;78.40
28837;DHT22;50669;50.982;11.022;2023-03-01T15:41:21;16.80;78.50
28837;DHT22;50669;50.982;11.022;2023-03-01T15:43:46;16.70;78.40
28837;DHT22;50669;50.982;11.022;2023-03-01T15:46:22;16.70;78.40
28837;DHT22;50669;50.982;11.022;2023-03-01T15:48:54;16.70;78.40
28837;DHT22;50669;50.982;11.022;2023-03-01T15:54:00;16.70;78.40
28837;DHT22;50669;50.982;11.022;2023-03-01T15:56:26;16.70;78.30
28837;DHT22;50669;50.982;11.022;2023-03-01T15:58:52;16.70;78.40
28837;DHT22;50669;50.982;11.022;2023-03-01T16:01:17;16.70;78.40
28837;DHT22;50669;50.982;11.022;2023-03-01T16:03:46;16.70;78.40
28837;DHT22;50669;50.982;11.022;2023-03-01T16:06:12;16.60;78.30
28837;DHT22;50669;50.982;11.022;2023-03-01T16:08:38;16.60;78.30
28837;DHT22;50669;50.982;11.022;2023-03-01T16:11:05;16.60;78.40
28837;DHT22;50669;50.982;11.022;2023-03-01T16:13:36;16.60;78.30
28837;DHT22;50669;50.982;11.022;2023-03-01T16:16:02;16.60;78.30
28837;DHT22;50669;50.982;11.022;2023-03-01T16:18:28;16.60;78.30
28837;DHT22;50669;50.982;11.022;2023-03-01T16:20:56;16.60;78.20
28837;DHT22;50669;50.982;11.022;2023-03-01T16:23:21;16.60;78.30
28837;DHT22;50669;50.982;11.022;2023-03-01T16:25:50;16.60;78.30
28837;DHT22;50669;50.982;11.022;2023-03-01T16:28:16;16.60;78.30
28837;DHT22;50669;50.982;11.022;2023-03-01T16:30:46;16.50;78.20
28837;DHT22;50669;50.982;11.022;2023-03-01T16:33:14;16.50;78.20
28837;DHT22;50669;50.982;11.022;2023-03-01T16:35:40;16.50;78.30
28837;DHT22;50669;50.982;11.022;2023-03-01T16:38:08;16.50;78.30
28837;DHT22;50669;50.982;11.022;2023-03-01T16:40:36;16.50;78.20
28837;DHT22;50669;50.982;11.022;2023-03-01T16:43:02;16.50;78.30
28837;DHT22;50669;50.982;11.022;2023-03-01T16:45:34;16.50;78.20
28837;DHT22;50669;50.982;11.022;2023-03-01T16:48:01;16.50;78.20
28837;DHT22;50669;50.982;11.022;2023-03-01T16:50:27;16.50;78.20
28837;DHT22;50669;50.982;11.022;2023-03-01T16:52:52;16.40;78.20
28837;DHT22;50669;50.982;11.022;2023-03-01T16:55:18;16.40;78.20
28837;DHT22;50669;50.982;11.022;2023-03-01T16:57:49;16.40;78.20
28837;DHT22;50669;50.982;11.022;2023-03-01T17:00:16;16.40;78.30
28837;DHT22;50669;50.982;11.022;2023-03-01T17:02:43;16.40;78.20
28837;DHT22;50669;50.982;11.022;2023-03-01T17:05:09;16.40;78.20
28837;DHT22;50669;50.982;11.022;2023-03-01T17:07:37;16.40;78.20
28837;DHT22;50669;50.982;11.022;2023-03-01T17:10:08;16.40;78.20
28837;DHT22;50669;50.982;11.022;2023-03-01T17:12:35;16.40;78.20
28837;DHT22;50669;50.982;11.022;2023-03-01T17:15:01;16.40;78.20
28837;DHT22;50669;50.982;11.022;2023-03-01T17:17:29;16.40;78.20
28837;DHT22;50669;50.982;11.022;2023-03-01T17:19:54;16.40;78.10
28837;DHT22;50669;50.982;11.022;2023-03-01T17:22:22;16.40;78.20
28837;DHT22;50669;50.982;11.022;2023-03-01T17:24:50;16.30;78.20
28837;DHT22;50669;50.982;11.022;2023-03-01T17:27:16;16.30;78.10
28837;DHT22;50669;50.982;11.022;2023-03-01T17:29:46;16.30;78.10
28837;DHT22;50669;50.982;11.022;2023-03-01T17:32:13;16.30;78.10
28837;DHT22;50669;50.982;11.022;2023-03-01T17:34:39;16.30;78.10
28837;DHT22;50669;50.982;11.022;2023-03-01T17:37:09;16.30;78.10
28837;DHT22;50669;50.982;11.022;2023-03-01T17:39:35;16.30;78.10
28837;DHT22;50669;50.982;11.022;2023-03-01T17:42:02;16.30;78.20
28837;DHT22;50669;50.982;11.022;2023-03-01T17:44:29;16.30;78.00
28837;DHT22;50669;50.982;11.022;2023-03-01T17:46:55;16.30;78.10
28837;DHT22;50669;50.982;11.022;2023-03-01T17:49:23;16.30;78.10
28837;DHT22;50669;50.982;11.022;2023-03-01T17:51:49;16.30;78.10
28837;DHT22;50669;50.982;11.022;2023-03-01T17:54:15;16.30;78.10
28837;DHT22;50669;50.982;11.022;2023-03-01T17:56:40;16.30;78.10
28837;DHT22;50669;50.982;11.022;2023-03-01T17:59:07;16.30;78.10